Time;durP1;ratioP1;P1;durP2;ratioP2;P2;SDS_P1;SDS_P2;PMS_P1;PMS_P2;Temp;Humidity;BMP_temperature;BMP_pressure;BME280_temperature;BME280_humidity;BME280_pressure;Samples;Min_cycle;Max_cycle;Signal;HPM_P1;HPM_P2
2022/01/17 00:00:46;;;;;;;39.53;27.90;;;;;;;0.02;59.33;102022.41;2580803;23;20155;-64
2022/01/17 00:01:47;;;;;;;36.00;25.83;;;;;;;-0.05;58.86;102024.84;2581324;23;20231;-64
2022/01/17 00:02:50;;;;;;;36.20;26.10;;;;;;;-0.06;57.73;102023.22;2581140;23;20150;-63
2022/01/17 00:03:50;;;;;;;38.30;26.48;;;;;;;-0.13;57.57;102022.97;2581046;23;20158;-64
2022/01/17 00:04:51;;;;;;;35.07;25.40;;;;;;;-0.61;59.40;101962.56;2581080;23;20665;-63
2022/01/17 00:05:53;;;;;;;38.07;26.93;;;;;;;-0.88;58.37;101926.78;2580999;23;20586;-64
2022/01/17 00:06:53;;;;;;;39.53;27.02;;;;;;;-1.17;58.48;101890.19;2567483;23;20163;-64
2022/01/17 00:07:53;;;;;;;38.83;27.33;;;;;;;-0.49;58.85;102006.25;2568474;23;20156;-63
2022/01/17 00:08:54;;;;;;;38.73;27.63;;;;;;;-0.39;58.77;102038.59;2567648;23;20184;-64
2022/01/17 00:09:55;;;;;;;38.83;28.27;;;;;;;-0.43;59.15;102034.91;2568298;23;20234;-64
2022/01/17 00:10:55;;;;;;;37.23;24.53;;;;;;;-0.72;59.77;101991.25;2581253;23;20586;-64
2022/01/17 00:11:57;;;;;;;32.13;21.63;;;;;;;-1.08;62.62;101955.44;2581113;23;20218;-64
2022/01/17 00:12:59;;;;;;;30.73;21.83;;;;;;;-0.55;62.65;102027.41;2581280;23;20155;-64
2022/01/17 00:13:59;;;;;;;38.15;26.10;;;;;;;-1.26;62.84;101932.91;2580699;23;20190;-64
2022/01/17 00:15:00;;;;;;;38.20;26.07;;;;;;;-0.55;61.19;102027.41;2582035;23;20601;-64
2022/01/17 00:16:22;;;;;;;30.73;21.57;;;;;;;-1.18;61.69;101933.25;2581077;23;20178;-64
2022/01/17 00:17:34;;;;;;;31.88;23.73;;;;;;;-0.54;61.08;102036.38;2580431;23;20162;-64
2022/01/17 00:19:41;;;;;;;19.27;14.68;;;;;;;-0.80;64.08;102025.53;2581453;23;20160;-64
2022/01/17 00:20:46;;;;;;;21.13;15.43;;;;;;;-0.64;64.68;102039.44;2581591;23;20135;-63
2022/01/17 00:21:47;;;;;;;18.13;13.95;;;;;;;-0.72;65.29;102043.78;2581658;23;20609;-63
2022/01/17 00:22:49;;;;;;;17.83;13.73;;;;;;;-0.77;65.22;102041.22;2581008;23;20524;-64
2022/01/17 00:23:49;;;;;;;33.67;21.95;;;;;;;-0.72;64.32;102057.38;2581223;23;20161;-64
2022/01/17 00:24:50;;;;;;;40.20;25.17;;;;;;;-0.67;62.86;102046.34;2581610;23;20230;-64
2022/01/17 00:25:51;;;;;;;37.33;23.80;;;;;;;-1.35;61.99;101961.25;2581624;23;20206;-64
2022/01/17 00:26:52;;;;;;;27.27;19.10;;;;;;;-1.86;62.12;101865.31;2582423;23;20216;-63
2022/01/17 00:27:52;;;;;;;21.77;15.95;;;;;;;-1.03;63.14;101995.31;2581509;23;20539;-64
2022/01/17 00:28:53;;;;;;;18.33;13.80;;;;;;;-0.63;63.83;102051.94;2568344;23;20181;-64
2022/01/17 00:29:53;;;;;;;16.20;12.87;;;;;;;-1.16;64.46;101959.00;2569339;23;20213;-63
2022/01/17 00:30:54;;;;;;;18.03;13.00;;;;;;;-0.61;64.70;102047.75;2582248;23;20159;-64
2022/01/17 00:31:55;;;;;;;19.30;12.90;;;;;;;-0.57;64.98;102046.00;2582119;23;20227;-64
2022/01/17 00:32:56;;;;;;;19.23;13.50;;;;;;;-0.73;65.00;102014.16;2581706;23;20151;-64
2022/01/17 00:33:56;;;;;;;17.33;13.00;;;;;;;-0.52;65.11;102055.13;2581458;23;20234;-64
2022/01/17 00:34:57;;;;;;;19.57;14.00;;;;;;;-0.54;64.85;102044.56;2582636;23;20198;-64
2022/01/17 00:35:58;;;;;;;30.40;20.58;;;;;;;-0.51;63.93;102049.38;2581412;23;20160;-64
2022/01/17 00:36:59;;;;;;;22.10;16.47;;;;;;;-0.48;63.73;102050.63;2582508;23;20691;-64
2022/01/17 00:37:59;;;;;;;17.33;12.83;;;;;;;-0.46;64.33;102041.81;2582392;23;20162;-64
2022/01/17 00:39:00;;;;;;;17.93;13.73;;;;;;;-0.54;64.34;102030.94;2581421;23;20363;-64
2022/01/17 00:40:00;;;;;;;28.60;21.00;;;;;;;-1.45;63.56;101868.34;2582216;23;20185;-64
2022/01/17 00:41:01;;;;;;;21.30;14.30;;;;;;;-0.39;63.97;102035.88;2568637;23;20535;-64
2022/01/17 00:42:01;;;;;;;28.90;21.23;;;;;;;-0.37;63.37;102033.59;2568383;23;20156;-64
2022/01/17 00:43:02;;;;;;;30.10;20.30;;;;;;;-0.35;62.78;102031.38;2582316;23;20241;-64
2022/01/17 00:44:04;;;;;;;34.83;23.87;;;;;;;-0.33;61.24;102031.84;2581620;23;20197;-64
2022/01/17 00:45:07;;;;;;;24.75;17.73;;;;;;;-0.91;61.92;101941.84;2582090;23;20211;-64
2022/01/17 00:46:09;;;;;;;36.17;23.45;;;;;;;-0.35;61.03;102032.16;2582118;23;20234;-64
2022/01/17 00:47:09;;;;;;;35.22;23.98;;;;;;;-0.32;60.41;102044.31;2582219;23;20147;-64
2022/01/17 00:48:11;;;;;;;32.97;22.83;;;;;;;-0.30;60.42;102029.25;2581590;23;20151;-64
2022/01/17 00:49:11;;;;;;;32.50;21.50;;;;;;;-0.28;60.24;102021.56;2581410;23;20155;-64
2022/01/17 00:50:11;;;;;;;24.87;17.60;;;;;;;-0.50;61.06;102000.00;2582451;23;20155;-64
2022/01/17 00:51:12;;;;;;;30.13;19.93;;;;;;;-0.35;61.42;102026.72;2582082;23;20155;-64
2022/01/17 00:52:13;;;;;;;33.57;22.90;;;;;;;-0.42;60.79;102015.53;2581825;23;20177;-64
2022/01/17 00:53:13;;;;;;;32.80;22.23;;;;;;;-0.39;60.24;102027.69;2581749;23;20176;-63
2022/01/17 00:54:14;;;;;;;34.80;22.80;;;;;;;-0.53;59.88;102008.03;2581308;23;20170;-64
2022/01/17 00:55:14;;;;;;;34.17;24.53;;;;;;;-0.40;59.60;102037.78;2581240;23;20242;-64
2022/01/17 00:56:15;;;;;;;34.87;23.40;;;;;;;-0.65;59.59;101997.00;2568744;23;20162;-64
2022/01/17 00:57:17;;;;;;;37.17;24.10;;;;;;;-0.47;59.54;102030.44;2568644;23;20161;-64
2022/01/17 00:58:17;;;;;;;34.90;23.92;;;;;;;-0.51;59.84;102039.25;2581873;23;20564;-64
2022/01/17 00:59:18;;;;;;;35.50;24.10;;;;;;;-1.66;59.95;101879.06;2582139;23;20154;-64
2022/01/17 01:00:18;;;;;;;29.53;22.53;;;;;;;-0.57;60.17;102044.41;2568128;23;20164;-64
2022/01/17 01:01:19;;;;;;;32.27;23.70;;;;;;;-0.61;59.88;102039.59;2568268;23;20160;-64
2022/01/17 01:02:20;;;;;;;32.70;23.67;;;;;;;-0.69;59.95;102039.59;2581021;23;20182;-64
2022/01/17 01:03:21;;;;;;;32.10;23.27;;;;;;;-1.50;59.32;101920.94;2568472;23;20603;-64
2022/01/17 01:04:21;;;;;;;34.67;23.73;;;;;;;-0.81;59.25;102042.19;2568873;23;20261;-64
2022/01/17 01:05:22;;;;;;;34.33;23.63;;;;;;;-0.86;59.46;102045.88;2580664;23;20184;-64
2022/01/17 01:06:23;;;;;;;36.63;23.67;;;;;;;-0.99;59.79;102021.56;2582357;23;20154;-64
2022/01/17 01:07:23;;;;;;;31.83;24.30;;;;;;;-1.23;59.90;101976.91;2568739;23;20193;-64
2022/01/17 01:08:24;;;;;;;40.17;25.27;;;;;;;-0.88;59.45;102039.16;2568878;23;20330;-64
2022/01/17 01:09:28;;;;;;;37.03;24.90;;;;;;;-1.57;59.72;101928.78;2581698;22;20152;-65
2022/01/17 01:10:30;;;;;;;37.60;25.25;;;;;;;-1.22;59.92;102012.75;2581719;23;20243;-64
2022/01/17 01:11:30;;;;;;;40.17;28.13;;;;;;;-1.67;60.16;101915.50;2581519;23;20150;-64
2022/01/17 01:12:31;;;;;;;41.47;27.93;;;;;;;-1.10;60.22;102006.69;2581594;23;20188;-63
2022/01/17 01:13:32;;;;;;;40.53;27.67;;;;;;;-0.98;59.83;102033.25;2581408;23;20149;-64
2022/01/17 01:14:33;;;;;;;36.00;25.20;;;;;;;-1.66;59.69;101922.53;2581837;23;20153;-64
2022/01/17 01:16:42;;;;;;;38.92;25.25;;;;;;;-1.02;59.75;102020.28;2582682;23;20149;-64
2022/01/17 01:17:50;;;;;;;35.75;24.58;;;;;;;-1.02;60.53;102022.22;2582459;23;20154;-63
2022/01/17 01:20:03;;;;;;;39.42;24.33;;;;;;;-1.58;61.48;101922.53;2569406;23;20229;-64
2022/01/17 01:27:54;;;;;;;34.83;21.88;;;;;;;-1.13;61.13;102004.59;2582226;23;20137;-64
2022/01/17 01:28:55;;;;;;;32.17;21.30;;;;;;;-1.21;61.23;101994.53;2581574;23;20177;-64
2022/01/17 01:29:58;;;;;;;34.23;21.93;;;;;;;-1.12;60.99;102003.50;2582438;23;20156;-64
2022/01/17 01:31:01;;;;;;;27.00;18.17;;;;;;;-1.14;61.80;102005.72;2582267;23;20502;-64
2022/01/17 01:32:06;;;;;;;29.58;20.38;;;;;;;-1.13;60.58;102005.41;2566763;23;20691;-64
2022/01/17 01:33:07;;;;;;;30.77;20.98;;;;;;;-1.19;60.52;101997.72;2569389;23;20142;-64
2022/01/17 01:34:09;;;;;;;31.80;19.87;;;;;;;-1.13;60.47;102009.25;2581352;23;20158;-64
2022/01/17 01:35:12;;;;;;;27.33;19.23;;;;;;;-1.12;61.17;102006.22;2582044;23;20148;-64
2022/01/17 01:36:19;;;;;;;23.92;17.52;;;;;;;-1.11;62.02;102005.09;2582155;23;20211;-64
2022/01/17 01:37:19;;;;;;;28.33;18.20;;;;;;;-1.15;62.71;101993.22;2582035;23;20386;-64
2022/01/17 01:38:20;;;;;;;25.13;18.03;;;;;;;-2.10;62.78;101825.00;2581670;23;20239;-64
2022/01/17 01:39:23;;;;;;;29.50;19.10;;;;;;;-1.47;61.45;101929.25;2581977;23;20597;-64
2022/01/17 01:40:24;;;;;;;34.75;20.92;;;;;;;-1.01;61.49;101996.59;2582473;23;20176;-64
2022/01/17 01:41:25;;;;;;;27.90;17.70;;;;;;;-0.98;61.66;101992.44;2582058;23;20148;-64
2022/01/17 01:42:28;;;;;;;32.07;19.37;;;;;;;-0.98;60.95;101999.47;2580441;23;20628;-64
2022/01/17 01:43:29;;;;;;;32.08;19.10;;;;;;;-0.99;62.31;101997.06;2581014;23;20623;-64
2022/01/17 01:44:30;;;;;;;28.93;18.57;;;;;;;-0.98;60.69;101995.16;2582073;23;20540;-64
2022/01/17 01:45:31;;;;;;;28.88;17.73;;;;;;;-2.06;62.14;101844.22;2580881;23;20202;-64
2022/01/17 01:46:31;;;;;;;35.83;19.57;;;;;;;-1.08;60.75;101998.97;2582234;23;20182;-64
2022/01/17 01:47:32;;;;;;;26.23;16.13;;;;;;;-1.08;61.58;101992.75;2582240;23;20178;-64
2022/01/17 01:48:35;;;;;;;32.10;19.67;;;;;;;-1.08;60.61;101994.34;2581558;23;20148;-64
2022/01/17 01:49:36;;;;;;;28.33;19.50;;;;;;;-1.11;60.06;101989.53;2582087;23;20158;-64
2022/01/17 01:50:36;;;;;;;24.07;16.93;;;;;;;-1.53;61.87;101918.06;2582086;23;20155;-64
2022/01/17 01:51:37;;;;;;;27.07;18.47;;;;;;;-1.79;61.26;101874.59;2581839;23;20151;-63
2022/01/17 01:52:41;;;;;;;23.10;15.60;;;;;;;-1.20;61.65;101968.91;2567836;23;20618;-64
2022/01/17 01:53:41;;;;;;;29.92;18.23;;;;;;;-1.66;61.14;101889.91;2568060;23;20455;-64
2022/01/17 01:54:42;;;;;;;31.10;19.67;;;;;;;-1.02;60.44;101977.88;2581692;23;20148;-64
2022/01/17 01:55:44;;;;;;;27.60;17.80;;;;;;;-1.04;61.16;101980.13;2580586;23;20158;-64
2022/01/17 01:56:47;;;;;;;30.85;18.30;;;;;;;-1.03;61.47;101984.44;2582238;23;20162;-64
2022/01/17 01:57:48;;;;;;;25.20;17.27;;;;;;;-1.03;62.43;101984.44;2582218;23;20217;-64
2022/01/17 01:58:49;;;;;;;27.23;18.55;;;;;;;-1.66;60.95;101887.19;2581362;23;20156;-64
2022/01/17 01:59:49;;;;;;;27.23;18.00;;;;;;;-0.99;61.29;101979.94;2581832;23;20148;-64
2022/01/17 02:00:50;;;;;;;27.13;18.33;;;;;;;-1.62;60.66;101885.44;2582013;23;20189;-64
2022/01/17 02:01:52;;;;;;;21.95;15.88;;;;;;;-1.04;61.50;101971.97;2582313;23;20232;-64
2022/01/17 02:02:52;;;;;;;35.92;19.17;;;;;;;-1.27;61.49;101923.16;2581052;23;20605;-64
2022/01/17 02:03:53;;;;;;;23.67;16.93;;;;;;;-1.01;62.49;101963.94;2580145;23;20509;-63
2022/01/17 02:04:53;;;;;;;31.67;18.30;;;;;;;-0.95;62.36;101965.38;2581813;23;20152;-64
2022/01/17 02:05:53;;;;;;;33.77;19.70;;;;;;;-1.98;61.38;101793.38;2581424;23;20166;-64
2022/01/17 02:06:54;;;;;;;30.30;18.30;;;;;;;-0.97;62.32;101957.53;2582025;23;20159;-64
2022/01/17 02:07:55;;;;;;;30.30;18.60;;;;;;;-1.48;61.98;101876.00;2582040;23;20160;-64
2022/01/17 02:08:55;;;;;;;34.27;19.87;;;;;;;-0.96;62.51;101967.28;2581555;23;20512;-64
2022/01/17 02:09:56;;;;;;;31.80;19.70;;;;;;;-1.02;62.44;101939.78;2582044;23;20276;-64
2022/01/17 02:10:58;;;;;;;28.80;18.97;;;;;;;-0.93;63.90;101942.16;2568651;23;20231;-63
2022/01/17 02:11:58;;;;;;;29.98;19.02;;;;;;;-1.68;63.47;101823.41;2568467;23;20385;-63
2022/01/17 02:12:59;;;;;;;25.17;16.43;;;;;;;-0.89;64.11;101949.69;2581140;23;20158;-64
2022/01/17 02:14:00;;;;;;;23.40;15.97;;;;;;;-0.86;64.63;101947.91;2580596;23;20225;-64
2022/01/17 02:15:01;;;;;;;24.75;16.88;;;;;;;-0.81;64.86;101944.22;2568286;23;20235;-64
2022/01/17 02:16:09;;;;;;;25.75;17.65;;;;;;;-0.73;62.45;101943.38;2568038;23;20156;-64
2022/01/17 02:17:09;;;;;;;25.13;16.40;;;;;;;-1.37;62.54;101843.84;2581788;23;20143;-64
2022/01/17 02:18:12;;;;;;;22.73;16.20;;;;;;;-0.67;61.41;101950.25;2581462;23;20155;-64
2022/01/17 02:19:13;;;;;;;26.75;17.95;;;;;;;-1.13;61.59;101869.38;2582028;23;20156;-64
2022/01/17 02:20:46;;;;;;;28.60;18.10;;;;;;;-0.68;60.62;101942.41;2581708;23;20174;-64
2022/01/17 02:21:49;;;;;;;29.88;16.52;;;;;;;-0.73;60.51;101957.81;2581168;23;20596;-64
2022/01/17 02:22:52;;;;;;;15.73;11.75;;;;;;;-0.71;63.36;101949.31;2580981;23;20155;-64
2022/01/17 02:23:52;;;;;;;27.52;16.85;;;;;;;-0.67;63.38;101961.13;2581020;23;20190;-63
2022/01/17 02:24:53;;;;;;;30.63;17.83;;;;;;;-1.21;61.37;101866.69;2580708;23;20162;-64
2022/01/17 02:25:55;;;;;;;29.63;17.20;;;;;;;-0.61;61.84;101952.47;2580636;23;20680;-64
2022/01/17 02:26:56;;;;;;;27.45;16.65;;;;;;;-0.56;62.16;101960.47;2581024;23;20523;-64
2022/01/17 02:27:57;;;;;;;27.17;15.63;;;;;;;-0.52;62.24;101955.16;2581835;23;20178;-64
2022/01/17 02:28:58;;;;;;;27.83;15.63;;;;;;;-0.46;61.58;101959.31;2567891;23;20163;-64
2022/01/17 02:29:58;;;;;;;24.70;15.87;;;;;;;-0.47;62.45;101952.25;2568990;23;20229;-64
2022/01/17 02:31:00;;;;;;;29.20;15.80;;;;;;;-0.52;63.05;101933.38;2568547;23;20716;-64
2022/01/17 02:32:00;;;;;;;21.50;14.10;;;;;;;-0.38;62.42;101950.31;2568244;23;20228;-64
2022/01/17 02:33:02;;;;;;;22.27;15.10;;;;;;;-0.35;62.46;101958.63;2579969;23;20646;-64
2022/01/17 02:34:03;;;;;;;24.13;17.55;;;;;;;-0.56;64.22;101933.22;2580018;23;20557;-64
2022/01/17 02:35:12;;;;;;;23.85;18.38;;;;;;;-0.28;65.77;101963.56;2581464;23;20168;-63
2022/01/17 02:36:13;;;;;;;22.23;16.63;;;;;;;-1.13;67.29;101835.94;2581672;23;20155;-64
2022/01/17 02:37:15;;;;;;;20.33;16.27;;;;;;;-0.24;67.70;101959.84;2581686;23;20157;-64
2022/01/17 02:38:15;;;;;;;26.08;16.88;;;;;;;-0.29;68.17;101957.31;2581499;23;20151;-64
2022/01/17 02:39:16;;;;;;;21.83;17.50;;;;;;;-0.13;68.94;101966.56;2581951;23;20151;-64
2022/01/17 02:40:18;;;;;;;26.08;17.98;;;;;;;-0.22;69.19;101975.88;2568450;23;20188;-63
2022/01/17 02:41:19;;;;;;;24.33;18.67;;;;;;;-0.16;70.31;101961.75;2568508;23;20224;-64
2022/01/17 02:42:21;;;;;;;26.70;19.20;;;;;;;-0.13;70.85;101961.09;2581514;23;20152;-63
2022/01/17 02:43:23;;;;;;;24.08;18.08;;;;;;;-0.04;71.55;101955.59;2581313;23;20148;-64
2022/01/17 02:44:24;;;;;;;23.75;18.75;;;;;;;-0.06;71.31;101963.28;2581398;23;20151;-64
2022/01/17 02:46:44;;;;;;;21.70;15.35;;;;;;;-0.42;68.97;101875.81;2581470;23;20303;-64
2022/01/17 02:47:44;;;;;;;21.20;15.93;;;;;;;0.17;68.08;101961.88;2568250;23;20692;-64
2022/01/17 02:48:45;;;;;;;20.97;15.27;;;;;;;0.21;67.31;101966.34;2568157;23;20179;-64
2022/01/17 02:49:45;;;;;;;21.80;15.47;;;;;;;-0.12;66.95;101905.47;2582022;23;20148;-64
2022/01/17 02:50:46;;;;;;;22.20;15.53;;;;;;;-0.47;66.91;101837.88;2581697;23;20152;-64
2022/01/17 02:51:48;;;;;;;22.20;15.35;;;;;;;0.41;66.37;101960.09;2581777;23;20158;-64
2022/01/17 02:52:49;;;;;;;17.63;12.70;;;;;;;0.46;65.37;101959.09;2581475;23;20506;-64
2022/01/17 02:53:50;;;;;;;26.30;15.57;;;;;;;-0.03;63.77;101873.53;2580819;23;20239;-64
2022/01/17 02:54:51;;;;;;;22.33;13.68;;;;;;;0.45;63.61;101955.59;2581186;23;20155;-64
2022/01/17 02:55:57;;;;;;;16.17;11.37;;;;;;;0.69;62.76;101953.00;2580156;23;20155;-64
2022/01/17 02:56:58;;;;;;;16.98;10.40;;;;;;;0.78;61.90;101959.16;2580886;23;20158;-64
2022/01/17 02:57:58;;;;;;;15.20;10.70;;;;;;;0.81;61.59;101955.78;2582127;23;20147;-64
2022/01/17 02:58:59;;;;;;;13.47;9.77;;;;;;;0.85;61.36;101955.91;2567833;23;20188;-64
2022/01/17 02:59:59;;;;;;;12.97;9.70;;;;;;;-0.87;60.30;101670.66;2568457;23;20151;-64
2022/01/17 03:01:06;;;;;;;16.30;9.43;;;;;;;0.04;60.24;101813.81;2581665;23;20659;-64
2022/01/17 03:02:07;;;;;;;12.10;8.40;;;;;;;0.91;59.61;101917.16;2581524;23;20138;-64
2022/01/17 03:03:13;;;;;;;11.07;8.07;;;;;;;1.18;59.51;101954.75;2581440;23;20178;-64
2022/01/17 03:04:13;;;;;;;15.80;10.10;;;;;;;1.25;59.25;101948.75;2580952;23;20143;-64
2022/01/17 03:05:14;;;;;;;11.33;7.97;;;;;;;0.92;59.05;101894.19;2580635;23;20272;-64
2022/01/17 03:06:17;;;;;;;11.57;8.20;;;;;;;1.14;58.97;101923.81;2582127;23;20156;-64
2022/01/17 03:07:17;;;;;;;11.00;8.05;;;;;;;0.68;58.80;101834.06;2580885;23;20200;-64
2022/01/17 03:08:20;;;;;;;11.10;7.70;;;;;;;1.56;58.04;101951.78;2581288;23;20148;-64
2022/01/17 03:09:21;;;;;;;13.65;8.63;;;;;;;1.66;58.15;101952.13;2581336;23;20151;-64
2022/01/17 03:10:39;;;;;;;11.07;7.85;;;;;;;1.71;57.83;101964.78;2581711;23;20203;-64
2022/01/17 03:11:39;;;;;;;9.77;7.03;;;;;;;1.77;57.76;101952.47;2581636;23;20593;-64
2022/01/17 03:12:40;;;;;;;11.43;7.90;;;;;;;1.71;58.01;101923.78;2581570;23;20552;-64
2022/01/17 03:13:41;;;;;;;11.40;7.80;;;;;;;1.46;57.27;101883.91;2567428;23;20285;-64
2022/01/17 03:14:42;;;;;;;9.20;7.13;;;;;;;1.51;56.92;101851.72;2567965;23;20665;-64
2022/01/17 03:15:45;;;;;;;10.73;7.77;;;;;;;2.24;56.12;101939.91;2580690;23;20228;-64
2022/01/17 03:16:48;;;;;;;9.05;7.35;;;;;;;1.53;56.09;101824.84;2581810;23;20155;-64
2022/01/17 03:17:48;;;;;;;10.73;7.10;;;;;;;1.98;55.72;101884.81;2567753;23;20163;-64
2022/01/17 03:18:50;;;;;;;10.40;7.20;;;;;;;2.45;55.40;101940.53;2567502;23;20152;-64
2022/01/17 03:19:51;;;;;;;11.35;7.00;;;;;;;2.41;55.30;101912.31;2581612;23;20155;-64
2022/01/17 03:20:51;;;;;;;9.93;7.20;;;;;;;2.56;55.03;101936.22;2581783;23;20590;-64
2022/01/17 03:21:52;;;;;;;9.33;6.77;;;;;;;2.07;54.14;101833.53;2581876;23;20147;-64
2022/01/17 03:22:52;;;;;;;12.33;8.07;;;;;;;2.66;54.74;101925.56;2581096;23;20235;-64
2022/01/17 03:23:53;;;;;;;9.67;7.30;;;;;;;2.69;54.91;101929.53;2580491;23;20298;-64
2022/01/17 03:24:53;;;;;;;9.87;7.43;;;;;;;2.14;53.64;101840.00;2581366;23;20597;-64
2022/01/17 03:25:55;;;;;;;10.17;7.10;;;;;;;2.80;53.88;101925.97;2581220;23;20166;-64
2022/01/17 03:26:56;;;;;;;10.90;7.85;;;;;;;2.84;53.26;101924.13;2581849;23;20261;-64
2022/01/17 03:27:57;;;;;;;14.30;7.07;;;;;;;2.87;54.13;101933.59;2581683;23;20226;-64
2022/01/17 03:29:02;;;;;;;10.70;7.70;;;;;;;2.92;54.13;101933.34;2566699;23;20201;-64
2022/01/17 03:30:04;;;;;;;8.52;6.53;;;;;;;2.02;53.73;101790.03;2557249;23;20153;-64
2022/01/17 03:31:06;;;;;;;8.82;6.30;;;;;;;2.86;53.44;101926.50;2555870;23;20164;-64
2022/01/17 03:32:07;;;;;;;9.45;7.07;;;;;;;2.90;53.74;101927.41;2568338;23;20148;-64
2022/01/17 03:33:11;;;;;;;9.17;6.30;;;;;;;2.96;53.80;101924.06;2581364;23;20156;-63
2022/01/17 03:34:11;;;;;;;9.85;6.57;;;;;;;2.90;53.64;101928.19;2580632;23;20156;-63
2022/01/17 03:35:12;;;;;;;9.67;6.47;;;;;;;1.77;53.76;101753.78;2581032;23;20144;-64
2022/01/17 03:36:12;;;;;;;8.67;5.83;;;;;;;2.49;53.82;101870.31;2581660;23;20171;-64
2022/01/17 03:37:13;;;;;;;9.73;6.37;;;;;;;2.65;53.86;101902.06;2581407;23;20229;-64
2022/01/17 03:38:17;;;;;;;8.53;5.93;;;;;;;3.04;53.74;101930.53;2581301;23;20148;-64
2022/01/17 03:39:17;;;;;;;9.13;6.30;;;;;;;3.06;53.53;101934.50;2581193;23;20148;-64
2022/01/17 03:40:18;;;;;;;8.40;6.10;;;;;;;3.12;53.36;101935.84;2581696;23;20227;-64
2022/01/17 03:41:18;;;;;;;8.97;5.70;;;;;;;2.83;53.14;101883.41;2568122;23;20602;-63
2022/01/17 03:42:19;;;;;;;8.73;5.80;;;;;;;2.30;53.13;101804.50;2567948;23;20198;-64
2022/01/17 03:43:21;;;;;;;8.30;5.47;;;;;;;2.43;53.01;101836.16;2581048;23;20152;-64
2022/01/17 03:44:22;;;;;;;8.77;6.10;;;;;;;3.26;52.27;101938.16;2580833;23;20625;-63
2022/01/17 03:45:22;;;;;;;8.40;5.50;;;;;;;2.51;52.75;101818.78;2580034;23;20520;-64
2022/01/17 03:46:24;;;;;;;9.77;6.30;;;;;;;3.27;52.60;101940.56;2581855;23;20217;-64
2022/01/17 03:47:24;;;;;;;9.45;5.57;;;;;;;3.35;52.31;101945.09;2581783;23;20178;-64
2022/01/17 03:48:27;;;;;;;8.37;5.80;;;;;;;3.41;51.51;101946.41;2581279;23;20283;-63
2022/01/17 03:49:27;;;;;;;8.00;5.93;;;;;;;3.43;51.70;101949.59;2581423;23;20213;-64
2022/01/17 03:50:28;;;;;;;7.53;5.77;;;;;;;3.44;51.39;101944.91;2581060;23;20171;-64
2022/01/17 03:51:28;;;;;;;8.83;5.90;;;;;;;3.38;51.68;101927.94;2581725;23;20478;-64
2022/01/17 03:52:29;;;;;;;9.40;5.70;;;;;;;3.50;51.74;101946.25;2581030;23;20219;-64
2022/01/17 03:53:31;;;;;;;9.07;5.90;;;;;;;3.50;51.41;101947.03;2581013;23;20270;-64
2022/01/17 03:54:32;;;;;;;9.82;6.07;;;;;;;3.55;51.59;101949.50;2580974;23;20149;-64
2022/01/17 03:55:34;;;;;;;8.43;6.00;;;;;;;3.38;51.92;101907.97;2579915;23;20624;-64
2022/01/17 03:56:35;;;;;;;8.90;6.00;;;;;;;3.32;51.02;101885.50;2582008;23;20278;-64
2022/01/17 03:57:35;;;;;;;8.33;5.97;;;;;;;3.58;50.79;101920.59;2581474;23;20148;-64
2022/01/17 03:58:36;;;;;;;9.70;6.37;;;;;;;3.67;51.13;101940.41;2581172;23;20153;-64
2022/01/17 03:59:36;;;;;;;10.43;6.77;;;;;;;3.81;50.70;101946.25;2581660;23;20582;-64
2022/01/17 04:00:43;;;;;;;10.07;7.00;;;;;;;3.75;50.85;101937.47;2581855;23;20318;-64
2022/01/17 04:01:43;;;;;;;9.73;6.68;;;;;;;3.21;50.89;101850.75;2582711;23;20149;-64
2022/01/17 04:02:44;;;;;;;10.60;6.77;;;;;;;3.83;50.92;101938.44;2581922;23;20560;-64
2022/01/17 04:03:46;;;;;;;9.03;6.57;;;;;;;3.77;49.68;101920.69;2581922;23;20180;-64
2022/01/17 04:04:47;;;;;;;9.50;6.50;;;;;;;3.87;49.85;101948.38;2581774;23;20183;-64
2022/01/17 04:05:47;;;;;;;9.07;6.80;;;;;;;3.61;50.08;101908.94;2581625;23;20601;-64
2022/01/17 04:06:48;;;;;;;10.30;6.67;;;;;;;3.87;50.35;101933.84;2582305;23;20148;-64
2022/01/17 04:07:48;;;;;;;8.73;6.23;;;;;;;3.37;50.29;101860.56;2582368;23;20174;-64
2022/01/17 04:08:49;;;;;;;9.23;5.80;;;;;;;3.92;48.76;101945.34;2581973;23;20598;-64
2022/01/17 04:09:49;;;;;;;8.53;6.00;;;;;;;3.94;48.37;101940.28;2582381;22;20196;-64
2022/01/17 04:10:50;;;;;;;10.50;5.80;;;;;;;4.01;47.83;101959.66;2582225;23;20532;-64
2022/01/17 04:11:50;;;;;;;8.50;6.23;;;;;;;3.91;47.91;101921.03;2581680;23;20152;-64
2022/01/17 04:12:51;;;;;;;9.57;6.27;;;;;;;4.04;47.57;101947.97;2581908;23;20235;-64
2022/01/17 04:13:51;;;;;;;9.77;6.30;;;;;;;3.48;46.76;101849.88;2581663;23;20671;-64
2022/01/17 04:14:54;;;;;;;9.73;6.37;;;;;;;4.09;47.15;101955.13;2581770;23;20151;-64
2022/01/17 04:15:55;;;;;;;9.02;6.35;;;;;;;3.65;47.09;101888.66;2581268;23;20156;-64
2022/01/17 04:16:55;;;;;;;8.90;6.20;;;;;;;4.05;47.11;101957.78;2569261;23;20156;-64
2022/01/17 04:17:56;;;;;;;10.07;6.63;;;;;;;4.05;47.46;101948.78;2569237;23;20182;-64
2022/01/17 04:18:57;;;;;;;11.20;6.63;;;;;;;4.20;47.20;101951.50;2580904;23;20230;-64
2022/01/17 04:20:04;;;;;;;8.90;6.33;;;;;;;4.24;46.93;101949.63;2582251;23;20536;-64
2022/01/17 04:21:04;;;;;;;9.00;6.40;;;;;;;3.36;47.02;101817.09;2582284;23;20345;-64
2022/01/17 04:22:05;;;;;;;9.27;6.70;;;;;;;4.29;46.30;101960.34;2581119;23;20184;-64
2022/01/17 04:23:08;;;;;;;8.90;6.33;;;;;;;4.33;46.58;101960.41;2582236;23;20180;-64
2022/01/17 04:24:09;;;;;;;10.20;6.35;;;;;;;4.09;46.84;101927.69;2581673;23;20159;-63
2022/01/17 04:25:10;;;;;;;8.70;6.50;;;;;;;3.92;46.66;101893.25;2581355;23;20187;-63
2022/01/17 04:26:10;;;;;;;8.30;6.30;;;;;;;4.41;46.47;101962.94;2582055;23;20603;-63
2022/01/17 04:27:11;;;;;;;10.23;6.37;;;;;;;4.37;46.10;101964.81;2582287;23;20191;-63
2022/01/17 04:28:13;;;;;;;9.17;6.73;;;;;;;4.05;46.15;101913.13;2581768;23;20594;-64
2022/01/17 04:29:13;;;;;;;10.77;6.60;;;;;;;3.97;45.63;101909.44;2582109;23;20155;-63
2022/01/17 04:30:15;;;;;;;9.00;6.60;;;;;;;4.33;45.58;101942.00;2582777;23;20152;-64
2022/01/17 04:31:15;;;;;;;11.80;6.47;;;;;;;4.06;44.91;101893.56;2582179;23;20235;-63
2022/01/17 04:32:16;;;;;;;9.50;6.37;;;;;;;4.60;44.85;101973.97;2581693;23;20148;-63
2022/01/17 04:33:16;;;;;;;9.73;6.27;;;;;;;4.67;44.79;101996.06;2568085;23;20635;-64
2022/01/17 04:34:17;;;;;;;9.10;6.57;;;;;;;4.64;45.13;101969.34;2568480;23;20271;-64
2022/01/17 04:35:23;;;;;;;9.30;6.33;;;;;;;4.44;44.62;101947.72;2580914;23;20582;-64
2022/01/17 04:36:23;;;;;;;10.38;6.45;;;;;;;4.65;44.67;101970.94;2582484;23;20134;-63
2022/01/17 04:37:24;;;;;;;10.57;7.17;;;;;;;4.72;44.74;101981.28;2582197;23;20148;-63
2022/01/17 04:38:24;;;;;;;8.50;6.60;;;;;;;4.07;45.20;101884.19;2581908;23;20211;-63
2022/01/17 04:39:25;;;;;;;8.80;6.43;;;;;;;4.81;44.48;101988.16;2582492;23;20200;-63
2022/01/17 04:40:26;;;;;;;8.67;6.47;;;;;;;4.75;44.97;101997.81;2582346;23;20650;-63
2022/01/17 04:41:36;;;;;;;8.73;6.57;;;;;;;4.72;44.64;101979.31;2582178;23;20158;-63
2022/01/17 04:42:43;;;;;;;10.20;6.28;;;;;;;4.87;44.69;101989.44;2581895;23;20146;-64
2022/01/17 04:43:58;;;;;;;10.75;6.68;;;;;;;4.85;44.43;101999.19;2581199;23;20246;-63
2022/01/17 04:45:07;;;;;;;10.23;6.70;;;;;;;4.63;45.01;101961.47;2568898;23;20243;-63
2022/01/17 04:46:10;;;;;;;9.95;6.88;;;;;;;4.80;44.63;101992.06;2570714;23;20148;-63
2022/01/17 04:47:11;;;;;;;9.60;6.68;;;;;;;4.80;45.12;101999.50;2581765;23;20504;-63
2022/01/17 04:48:11;;;;;;;8.73;6.93;;;;;;;4.23;45.19;101908.81;2581792;23;20234;-63
2022/01/17 04:49:12;;;;;;;9.73;6.73;;;;;;;4.81;44.93;101976.34;2581111;23;20205;-63
2022/01/17 04:50:19;;;;;;;9.33;6.70;;;;;;;4.78;45.44;101982.59;2582084;23;20174;-63
2022/01/17 04:51:19;;;;;;;9.95;6.82;;;;;;;4.36;45.53;101918.53;2582308;23;20180;-63
2022/01/17 04:52:20;;;;;;;11.47;7.40;;;;;;;4.51;45.97;101948.66;2581987;23;20612;-63
2022/01/17 04:53:21;;;;;;;10.40;7.43;;;;;;;4.47;45.16;101938.78;2581635;23;20149;-63
2022/01/17 04:55:29;;;;;;;9.63;6.85;;;;;;;4.88;45.60;101987.50;2580413;23;20149;-64
2022/01/17 04:56:29;;;;;;;10.55;7.65;;;;;;;4.86;45.61;101993.34;2582122;23;20144;-64
2022/01/17 04:57:30;;;;;;;9.10;7.57;;;;;;;4.53;46.23;101948.31;2582036;23;20593;-65